sensor_id;sensor_type;location;lat;lon;timestamp;P1;durP1;ratioP1;P2;durP2;ratioP2
57231;SDS011;43488;46.934;8.276;2023-07-08T00:02:13;621.25;;;303.10;;
57231;SDS011;43488;46.934;8.276;2023-07-08T00:04:41;606.35;;;374.10;;
57231;SDS011;43488;46.934;8.276;2023-07-08T00:07:12;618.00;;;303.13;;
57231;SDS011;43488;46.934;8.276;2023-07-08T00:09:42;604.55;;;385.13;;
57231;SDS011;43488;46.934;8.276;2023-07-08T00:12:10;621.40;;;311.55;;
57231;SDS011;43488;46.934;8.276;2023-07-08T00:14:37;617.28;;;305.45;;
57231;SDS011;43488;46.934;8.276;2023-07-08T00:17:11;624.00;;;317.73;;
57231;SDS011;43488;46.934;8.276;2023-07-08T00:19:41;615.75;;;316.17;;
57231;SDS011;43488;46.934;8.276;2023-07-08T00:22:12;595.15;;;375.50;;
57231;SDS011;43488;46.934;8.276;2023-07-08T00:24:43;598.17;;;376.08;;
57231;SDS011;43488;46.934;8.276;2023-07-08T00:27:11;621.15;;;322.30;;
57231;SDS011;43488;46.934;8.276;2023-07-08T00:29:42;615.45;;;320.85;;
57231;SDS011;43488;46.934;8.276;2023-07-08T00:32:11;602.92;;;390.35;;
57231;SDS011;43488;46.934;8.276;2023-07-08T00:34:41;602.25;;;386.08;;
57231;SDS011;43488;46.934;8.276;2023-07-08T00:37:12;601.78;;;397.40;;
57231;SDS011;43488;46.934;8.276;2023-07-08T00:39:40;621.75;;;321.25;;
57231;SDS011;43488;46.934;8.276;2023-07-08T00:42:16;620.83;;;326.73;;
57231;SDS011;43488;46.934;8.276;2023-07-08T00:44:46;599.92;;;374.98;;
57231;SDS011;43488;46.934;8.276;2023-07-08T00:47:15;616.53;;;325.00;;
57231;SDS011;43488;46.934;8.276;2023-07-08T00:49:55;603.78;;;395.95;;
57231;SDS011;43488;46.934;8.276;2023-07-08T00:52:29;612.00;;;313.52;;
57231;SDS011;43488;46.934;8.276;2023-07-08T00:55:06;609.58;;;404.02;;
57231;SDS011;43488;46.934;8.276;2023-07-08T00:57:36;602.80;;;383.92;;
57231;SDS011;43488;46.934;8.276;2023-07-08T01:00:10;600.25;;;395.10;;
57231;SDS011;43488;46.934;8.276;2023-07-08T01:02:44;611.63;;;313.00;;
57231;SDS011;43488;46.934;8.276;2023-07-08T01:05:25;598.88;;;388.02;;
57231;SDS011;43488;46.934;8.276;2023-07-08T01:07:56;596.22;;;386.80;;
57231;SDS011;43488;46.934;8.276;2023-07-08T01:10:31;597.17;;;389.73;;
57231;SDS011;43488;46.934;8.276;2023-07-08T01:13:09;591.97;;;371.67;;
57231;SDS011;43488;46.934;8.276;2023-07-08T01:15:41;624.88;;;332.88;;
57231;SDS011;43488;46.934;8.276;2023-07-08T01:18:11;596.65;;;380.08;;
57231;SDS011;43488;46.934;8.276;2023-07-08T01:20:43;603.55;;;393.45;;
57231;SDS011;43488;46.934;8.276;2023-07-08T01:23:14;617.00;;;319.35;;
57231;SDS011;43488;46.934;8.276;2023-07-08T01:25:42;595.70;;;373.02;;
57231;SDS011;43488;46.934;8.276;2023-07-08T01:28:12;599.85;;;378.80;;
57231;SDS011;43488;46.934;8.276;2023-07-08T01:30:42;620.72;;;316.85;;
57231;SDS011;43488;46.934;8.276;2023-07-08T01:33:17;600.60;;;377.08;;
57231;SDS011;43488;46.934;8.276;2023-07-08T01:35:48;620.13;;;309.70;;
57231;SDS011;43488;46.934;8.276;2023-07-08T01:38:17;607.83;;;296.48;;
57231;SDS011;43488;46.934;8.276;2023-07-08T01:40:52;592.35;;;369.80;;
57231;SDS011;43488;46.934;8.276;2023-07-08T01:43:22;599.50;;;378.45;;
57231;SDS011;43488;46.934;8.276;2023-07-08T01:45:50;615.17;;;310.13;;
57231;SDS011;43488;46.934;8.276;2023-07-08T01:48:19;588.92;;;360.95;;
57231;SDS011;43488;46.934;8.276;2023-07-08T01:51:03;624.43;;;324.53;;
57231;SDS011;43488;46.934;8.276;2023-07-08T01:53:34;594.83;;;373.33;;
57231;SDS011;43488;46.934;8.276;2023-07-08T01:56:07;595.13;;;373.67;;
57231;SDS011;43488;46.934;8.276;2023-07-08T01:58:38;600.20;;;381.25;;
57231;SDS011;43488;46.934;8.276;2023-07-08T02:01:06;600.30;;;386.92;;
57231;SDS011;43488;46.934;8.276;2023-07-08T02:03:34;615.72;;;312.10;;
57231;SDS011;43488;46.934;8.276;2023-07-08T02:06:03;621.33;;;314.30;;
57231;SDS011;43488;46.934;8.276;2023-07-08T02:08:32;605.65;;;293.20;;
57231;SDS011;43488;46.934;8.276;2023-07-08T02:10:59;611.38;;;302.35;;
57231;SDS011;43488;46.934;8.276;2023-07-08T02:13:27;590.55;;;363.60;;
57231;SDS011;43488;46.934;8.276;2023-07-08T02:15:54;622.42;;;319.48;;
57231;SDS011;43488;46.934;8.276;2023-07-08T02:18:23;611.95;;;306.65;;
57231;SDS011;43488;46.934;8.276;2023-07-08T02:20:51;593.97;;;372.90;;
57231;SDS011;43488;46.934;8.276;2023-07-08T02:23:20;617.67;;;309.98;;
57231;SDS011;43488;46.934;8.276;2023-07-08T02:25:53;606.53;;;392.65;;
57231;SDS011;43488;46.934;8.276;2023-07-08T02:28:23;617.20;;;309.48;;
57231;SDS011;43488;46.934;8.276;2023-07-08T02:30:51;596.83;;;374.33;;
57231;SDS011;43488;46.934;8.276;2023-07-08T02:33:20;617.67;;;311.70;;
57231;SDS011;43488;46.934;8.276;2023-07-08T02:35:54;613.47;;;305.35;;
57231;SDS011;43488;46.934;8.276;2023-07-08T02:38:22;617.38;;;307.98;;
57231;SDS011;43488;46.934;8.276;2023-07-08T02:40:52;600.47;;;381.38;;
57231;SDS011;43488;46.934;8.276;2023-07-08T02:43:19;593.97;;;367.38;;
57231;SDS011;43488;46.934;8.276;2023-07-08T02:45:52;595.55;;;374.73;;
57231;SDS011;43488;46.934;8.276;2023-07-08T02:48:20;613.15;;;302.00;;
57231;SDS011;43488;46.934;8.276;2023-07-08T02:50:47;616.35;;;310.50;;
57231;SDS011;43488;46.934;8.276;2023-07-08T02:53:15;606.38;;;296.23;;
57231;SDS011;43488;46.934;8.276;2023-07-08T02:55:43;598.80;;;378.55;;
57231;SDS011;43488;46.934;8.276;2023-07-08T02:58:11;591.80;;;368.95;;
57231;SDS011;43488;46.934;8.276;2023-07-08T03:00:39;595.25;;;377.90;;
57231;SDS011;43488;46.934;8.276;2023-07-08T03:03:06;609.28;;;394.02;;
57231;SDS011;43488;46.934;8.276;2023-07-08T03:05:37;613.63;;;295.57;;
57231;SDS011;43488;46.934;8.276;2023-07-08T03:08:05;595.42;;;371.92;;
57231;SDS011;43488;46.934;8.276;2023-07-08T03:10:33;591.35;;;366.77;;
57231;SDS011;43488;46.934;8.276;2023-07-08T03:13:01;616.17;;;305.58;;
57231;SDS011;43488;46.934;8.276;2023-07-08T03:15:28;593.28;;;367.40;;
57231;SDS011;43488;46.934;8.276;2023-07-08T03:17:55;617.58;;;309.13;;
57231;SDS011;43488;46.934;8.276;2023-07-08T03:20:24;619.88;;;314.05;;
57231;SDS011;43488;46.934;8.276;2023-07-08T03:22:52;598.58;;;380.80;;
57231;SDS011;43488;46.934;8.276;2023-07-08T03:25:19;616.03;;;309.73;;
57231;SDS011;43488;46.934;8.276;2023-07-08T03:27:48;619.20;;;310.92;;
57231;SDS011;43488;46.934;8.276;2023-07-08T03:30:16;594.20;;;374.10;;
57231;SDS011;43488;46.934;8.276;2023-07-08T03:32:43;585.63;;;359.63;;
57231;SDS011;43488;46.934;8.276;2023-07-08T03:35:11;621.30;;;319.08;;
57231;SDS011;43488;46.934;8.276;2023-07-08T03:37:38;592.13;;;368.85;;
57231;SDS011;43488;46.934;8.276;2023-07-08T03:40:07;604.47;;;393.65;;
57231;SDS011;43488;46.934;8.276;2023-07-08T03:42:37;614.85;;;302.48;;
57231;SDS011;43488;46.934;8.276;2023-07-08T03:45:05;583.90;;;353.92;;
57231;SDS011;43488;46.934;8.276;2023-07-08T03:47:32;608.60;;;303.00;;
57231;SDS011;43488;46.934;8.276;2023-07-08T03:50:00;622.10;;;326.55;;
57231;SDS011;43488;46.934;8.276;2023-07-08T03:52:27;590.53;;;365.83;;
57231;SDS011;43488;46.934;8.276;2023-07-08T03:54:54;617.25;;;314.20;;
57231;SDS011;43488;46.934;8.276;2023-07-08T03:57:22;602.13;;;283.73;;
57231;SDS011;43488;46.934;8.276;2023-07-08T03:59:50;598.60;;;382.33;;
57231;SDS011;43488;46.934;8.276;2023-07-08T04:02:20;613.70;;;306.75;;
57231;SDS011;43488;46.934;8.276;2023-07-08T04:04:47;589.08;;;366.05;;
57231;SDS011;43488;46.934;8.276;2023-07-08T04:07:16;617.15;;;311.55;;
57231;SDS011;43488;46.934;8.276;2023-07-08T04:09:44;608.65;;;305.23;;
57231;SDS011;43488;46.934;8.276;2023-07-08T04:12:17;605.08;;;293.83;;
57231;SDS011;43488;46.934;8.276;2023-07-08T04:14:45;592.45;;;370.67;;
57231;SDS011;43488;46.934;8.276;2023-07-08T04:17:12;612.25;;;304.35;;
57231;SDS011;43488;46.934;8.276;2023-07-08T04:19:40;602.58;;;288.60;;
57231;SDS011;43488;46.934;8.276;2023-07-08T04:22:10;610.25;;;300.30;;
57231;SDS011;43488;46.934;8.276;2023-07-08T04:24:39;592.30;;;367.88;;
57231;SDS011;43488;46.934;8.276;2023-07-08T04:27:08;622.78;;;319.27;;
57231;SDS011;43488;46.934;8.276;2023-07-08T04:29:43;615.83;;;309.13;;
57231;SDS011;43488;46.934;8.276;2023-07-08T04:32:11;590.33;;;367.73;;
57231;SDS011;43488;46.934;8.276;2023-07-08T04:34:38;608.08;;;298.98;;
57231;SDS011;43488;46.934;8.276;2023-07-08T04:37:05;609.40;;;305.67;;
57231;SDS011;43488;46.934;8.276;2023-07-08T04:39:35;612.03;;;310.08;;
57231;SDS011;43488;46.934;8.276;2023-07-08T04:42:03;587.15;;;364.30;;
57231;SDS011;43488;46.934;8.276;2023-07-08T04:44:31;611.40;;;307.98;;
57231;SDS011;43488;46.934;8.276;2023-07-08T04:46:59;599.50;;;387.08;;
57231;SDS011;43488;46.934;8.276;2023-07-08T04:49:27;601.55;;;392.42;;
57231;SDS011;43488;46.934;8.276;2023-07-08T04:51:59;618.88;;;324.63;;
57231;SDS011;43488;46.934;8.276;2023-07-08T04:54:28;599.55;;;367.02;;
57231;SDS011;43488;46.934;8.276;2023-07-08T04:56:55;595.83;;;384.45;;
57231;SDS011;43488;46.934;8.276;2023-07-08T04:59:24;616.95;;;310.38;;
57231;SDS011;43488;46.934;8.276;2023-07-08T05:01:52;622.50;;;322.88;;
57231;SDS011;43488;46.934;8.276;2023-07-08T05:04:20;600.40;;;384.63;;
57231;SDS011;43488;46.934;8.276;2023-07-08T05:06:48;614.55;;;309.58;;
57231;SDS011;43488;46.934;8.276;2023-07-08T05:09:17;625.58;;;323.80;;
57231;SDS011;43488;46.934;8.276;2023-07-08T05:11:45;601.08;;;379.05;;
57231;SDS011;43488;46.934;8.276;2023-07-08T05:14:12;592.60;;;370.35;;
57231;SDS011;43488;46.934;8.276;2023-07-08T05:16:40;603.67;;;388.77;;
57231;SDS011;43488;46.934;8.276;2023-07-08T05:19:07;606.63;;;393.98;;
57231;SDS011;43488;46.934;8.276;2023-07-08T05:21:35;615.50;;;305.85;;
57231;SDS011;43488;46.934;8.276;2023-07-08T05:24:03;608.38;;;395.80;;
57231;SDS011;43488;46.934;8.276;2023-07-08T05:26:31;603.15;;;388.92;;
57231;SDS011;43488;46.934;8.276;2023-07-08T05:29:00;598.10;;;388.15;;
57231;SDS011;43488;46.934;8.276;2023-07-08T05:31:27;599.90;;;370.00;;
57231;SDS011;43488;46.934;8.276;2023-07-08T05:33:55;626.72;;;329.70;;
57231;SDS011;43488;46.934;8.276;2023-07-08T05:36:22;626.00;;;327.92;;
57231;SDS011;43488;46.934;8.276;2023-07-08T05:38:49;617.97;;;323.38;;
57231;SDS011;43488;46.934;8.276;2023-07-08T05:41:16;622.10;;;322.95;;
57231;SDS011;43488;46.934;8.276;2023-07-08T05:43:44;605.67;;;376.08;;
57231;SDS011;43488;46.934;8.276;2023-07-08T05:46:11;605.30;;;378.08;;
57231;SDS011;43488;46.934;8.276;2023-07-08T05:48:39;613.55;;;388.20;;
57231;SDS011;43488;46.934;8.276;2023-07-08T05:51:06;623.85;;;314.95;;
57231;SDS011;43488;46.934;8.276;2023-07-08T05:53:34;619.22;;;305.02;;
57231;SDS011;43488;46.934;8.276;2023-07-08T05:56:02;601.20;;;357.02;;
57231;SDS011;43488;46.934;8.276;2023-07-08T05:58:31;604.63;;;333.38;;
57231;SDS011;43488;46.934;8.276;2023-07-08T06:00:59;607.50;;;340.52;;
57231;SDS011;43488;46.934;8.276;2023-07-08T06:03:26;592.25;;;319.30;;
57231;SDS011;43488;46.934;8.276;2023-07-08T06:05:54;603.38;;;358.65;;
57231;SDS011;43488;46.934;8.276;2023-07-08T06:08:21;620.45;;;370.85;;
57231;SDS011;43488;46.934;8.276;2023-07-08T06:10:49;601.42;;;335.00;;
57231;SDS011;43488;46.934;8.276;2023-07-08T06:13:16;620.45;;;285.67;;
57231;SDS011;43488;46.934;8.276;2023-07-08T06:15:44;603.30;;;342.60;;
57231;SDS011;43488;46.934;8.276;2023-07-08T06:18:11;613.95;;;273.38;;
57231;SDS011;43488;46.934;8.276;2023-07-08T06:20:38;620.30;;;284.50;;
57231;SDS011;43488;46.934;8.276;2023-07-08T06:23:06;602.88;;;338.48;;
57231;SDS011;43488;46.934;8.276;2023-07-08T06:25:33;632.33;;;295.58;;
57231;SDS011;43488;46.934;8.276;2023-07-08T06:28:01;610.55;;;350.38;;
57231;SDS011;43488;46.934;8.276;2023-07-08T06:30:29;629.63;;;292.48;;
57231;SDS011;43488;46.934;8.276;2023-07-08T06:32:56;611.05;;;347.75;;
57231;SDS011;43488;46.934;8.276;2023-07-08T06:35:23;622.88;;;279.15;;
57231;SDS011;43488;46.934;8.276;2023-07-08T06:37:52;621.05;;;280.90;;
57231;SDS011;43488;46.934;8.276;2023-07-08T06:40:19;620.03;;;261.55;;
57231;SDS011;43488;46.934;8.276;2023-07-08T06:42:48;603.45;;;339.15;;
57231;SDS011;43488;46.934;8.276;2023-07-08T06:45:15;619.58;;;298.30;;
57231;SDS011;43488;46.934;8.276;2023-07-08T06:47:42;618.60;;;386.08;;
57231;SDS011;43488;46.934;8.276;2023-07-08T06:50:09;612.92;;;372.73;;
57231;SDS011;43488;46.934;8.276;2023-07-08T06:52:37;621.45;;;294.38;;
57231;SDS011;43488;46.934;8.276;2023-07-08T06:55:05;605.80;;;352.02;;
57231;SDS011;43488;46.934;8.276;2023-07-08T06:57:35;628.28;;;383.20;;
57231;SDS011;43488;46.934;8.276;2023-07-08T07:00:07;620.78;;;374.83;;
57231;SDS011;43488;46.934;8.276;2023-07-08T07:02:36;616.55;;;364.48;;
57231;SDS011;43488;46.934;8.276;2023-07-08T07:05:05;623.40;;;306.15;;
57231;SDS011;43488;46.934;8.276;2023-07-08T07:07:33;611.45;;;370.95;;
57231;SDS011;43488;46.934;8.276;2023-07-08T07:10:01;611.08;;;354.58;;
57231;SDS011;43488;46.934;8.276;2023-07-08T07:12:29;615.35;;;292.45;;
57231;SDS011;43488;46.934;8.276;2023-07-08T07:14:58;606.28;;;369.15;;
57231;SDS011;43488;46.934;8.276;2023-07-08T07:17:26;616.85;;;378.90;;
57231;SDS011;43488;46.934;8.276;2023-07-08T07:19:53;620.17;;;378.80;;
57231;SDS011;43488;46.934;8.276;2023-07-08T07:22:21;614.35;;;386.15;;
57231;SDS011;43488;46.934;8.276;2023-07-08T07:24:48;622.72;;;315.20;;
57231;SDS011;43488;46.934;8.276;2023-07-08T07:27:15;631.17;;;328.15;;
57231;SDS011;43488;46.934;8.276;2023-07-08T07:29:44;628.67;;;330.17;;
57231;SDS011;43488;46.934;8.276;2023-07-08T07:32:15;613.33;;;383.15;;
57231;SDS011;43488;46.934;8.276;2023-07-08T07:34:48;606.17;;;366.63;;
57231;SDS011;43488;46.934;8.276;2023-07-08T07:39:45;625.67;;;313.55;;
57231;SDS011;43488;46.934;8.276;2023-07-08T07:42:14;633.78;;;335.67;;
57231;SDS011;43488;46.934;8.276;2023-07-08T07:44:42;623.05;;;385.10;;
57231;SDS011;43488;46.934;8.276;2023-07-08T07:47:10;611.90;;;378.92;;
57231;SDS011;43488;46.934;8.276;2023-07-08T07:49:38;625.78;;;282.92;;
57231;SDS011;43488;46.934;8.276;2023-07-08T07:52:07;618.85;;;297.02;;
57231;SDS011;43488;46.934;8.276;2023-07-08T07:54:37;632.13;;;342.90;;
57231;SDS011;43488;46.934;8.276;2023-07-08T07:57:05;641.65;;;366.52;;
57231;SDS011;43488;46.934;8.276;2023-07-08T07:59:33;615.65;;;366.02;;
57231;SDS011;43488;46.934;8.276;2023-07-08T08:02:01;609.40;;;358.65;;
57231;SDS011;43488;46.934;8.276;2023-07-08T08:04:29;629.53;;;302.45;;
57231;SDS011;43488;46.934;8.276;2023-07-08T08:06:56;630.70;;;395.30;;
57231;SDS011;43488;46.934;8.276;2023-07-08T08:09:24;614.67;;;375.55;;
57231;SDS011;43488;46.934;8.276;2023-07-08T08:11:51;620.42;;;366.45;;
57231;SDS011;43488;46.934;8.276;2023-07-08T08:14:19;619.47;;;352.70;;
57231;SDS011;43488;46.934;8.276;2023-07-08T08:16:46;616.08;;;354.45;;
57231;SDS011;43488;46.934;8.276;2023-07-08T08:19:13;612.88;;;334.67;;
57231;SDS011;43488;46.934;8.276;2023-07-08T08:21:41;621.22;;;367.40;;
57231;SDS011;43488;46.934;8.276;2023-07-08T08:24:08;620.55;;;368.45;;
57231;SDS011;43488;46.934;8.276;2023-07-08T08:26:35;624.25;;;358.65;;
57231;SDS011;43488;46.934;8.276;2023-07-08T08:29:02;614.05;;;330.17;;
57231;SDS011;43488;46.934;8.276;2023-07-08T08:31:29;612.55;;;246.80;;
57231;SDS011;43488;46.934;8.276;2023-07-08T08:33:58;626.08;;;343.05;;
57231;SDS011;43488;46.934;8.276;2023-07-08T08:36:25;608.22;;;314.10;;
57231;SDS011;43488;46.934;8.276;2023-07-08T08:38:53;622.63;;;351.02;;
57231;SDS011;43488;46.934;8.276;2023-07-08T08:41:24;634.75;;;376.38;;
57231;SDS011;43488;46.934;8.276;2023-07-08T08:44:00;637.53;;;296.98;;
57231;SDS011;43488;46.934;8.276;2023-07-08T08:46:36;626.83;;;362.55;;
57231;SDS011;43488;46.934;8.276;2023-07-08T08:49:22;625.78;;;346.30;;
57231;SDS011;43488;46.934;8.276;2023-07-08T08:52:18;641.20;;;296.55;;
57231;SDS011;43488;46.934;8.276;2023-07-08T08:54:46;632.05;;;367.83;;
57231;SDS011;43488;46.934;8.276;2023-07-08T09:00:07;640.30;;;324.88;;
57231;SDS011;43488;46.934;8.276;2023-07-08T09:05:44;642.78;;;338.27;;
57231;SDS011;43488;46.934;8.276;2023-07-08T09:08:18;637.63;;;331.60;;
57231;SDS011;43488;46.934;8.276;2023-07-08T09:10:57;623.42;;;389.20;;
57231;SDS011;43488;46.934;8.276;2023-07-08T09:13:46;623.80;;;375.63;;
57231;SDS011;43488;46.934;8.276;2023-07-08T09:21:59;622.47;;;393.50;;
57231;SDS011;43488;46.934;8.276;2023-07-08T09:25:08;627.28;;;378.48;;
57231;SDS011;43488;46.934;8.276;2023-07-08T09:27:47;633.63;;;395.65;;
57231;SDS011;43488;46.934;8.276;2023-07-08T09:30:15;641.15;;;344.85;;
57231;SDS011;43488;46.934;8.276;2023-07-08T09:32:49;635.38;;;327.45;;
57231;SDS011;43488;46.934;8.276;2023-07-08T09:35:18;615.80;;;378.65;;
57231;SDS011;43488;46.934;8.276;2023-07-08T09:37:50;617.72;;;365.13;;
57231;SDS011;43488;46.934;8.276;2023-07-08T09:40:21;638.38;;;325.50;;
57231;SDS011;43488;46.934;8.276;2023-07-08T09:43:15;632.17;;;383.27;;
57231;SDS011;43488;46.934;8.276;2023-07-08T09:45:58;617.17;;;369.40;;
57231;SDS011;43488;46.934;8.276;2023-07-08T09:48:36;631.25;;;379.42;;
57231;SDS011;43488;46.934;8.276;2023-07-08T09:51:04;634.08;;;381.98;;
57231;SDS011;43488;46.934;8.276;2023-07-08T09:53:33;642.92;;;304.33;;
57231;SDS011;43488;46.934;8.276;2023-07-08T09:56:02;629.25;;;353.23;;
57231;SDS011;43488;46.934;8.276;2023-07-08T09:58:34;637.08;;;298.48;;
57231;SDS011;43488;46.934;8.276;2023-07-08T10:01:10;650.35;;;323.35;;
57231;SDS011;43488;46.934;8.276;2023-07-08T10:03:42;642.65;;;313.40;;
57231;SDS011;43488;46.934;8.276;2023-07-08T10:06:25;588.27;;;262.67;;
57231;SDS011;43488;46.934;8.276;2023-07-08T10:09:00;635.88;;;292.30;;
57231;SDS011;43488;46.934;8.276;2023-07-08T10:11:41;654.05;;;327.08;;
57231;SDS011;43488;46.934;8.276;2023-07-08T10:14:20;648.13;;;285.13;;
57231;SDS011;43488;46.934;8.276;2023-07-08T10:17:02;633.78;;;266.90;;
57231;SDS011;43488;46.934;8.276;2023-07-08T10:19:30;668.30;;;417.83;;
57231;SDS011;43488;46.934;8.276;2023-07-08T10:28:03;637.70;;;368.27;;
57231;SDS011;43488;46.934;8.276;2023-07-08T10:31:04;631.33;;;369.27;;
57231;SDS011;43488;46.934;8.276;2023-07-08T10:42:09;651.35;;;313.40;;
57231;SDS011;43488;46.934;8.276;2023-07-08T10:45:05;642.50;;;386.17;;
57231;SDS011;43488;46.934;8.276;2023-07-08T10:47:53;642.10;;;316.38;;
57231;SDS011;43488;46.934;8.276;2023-07-08T10:56:50;649.33;;;418.17;;
57231;SDS011;43488;46.934;8.276;2023-07-08T11:05:42;638.33;;;379.85;;
57231;SDS011;43488;46.934;8.276;2023-07-08T11:14:21;645.80;;;371.63;;
57231;SDS011;43488;46.934;8.276;2023-07-08T11:19:53;645.25;;;428.63;;
57231;SDS011;43488;46.934;8.276;2023-07-08T11:22:27;656.92;;;379.70;;
57231;SDS011;43488;46.934;8.276;2023-07-08T11:24:58;656.17;;;380.17;;
57231;SDS011;43488;46.934;8.276;2023-07-08T11:27:33;655.20;;;389.88;;
57231;SDS011;43488;46.934;8.276;2023-07-08T11:32:41;627.03;;;378.83;;
57231;SDS011;43488;46.934;8.276;2023-07-08T11:35:23;652.15;;;354.70;;
57231;SDS011;43488;46.934;8.276;2023-07-08T11:38:16;638.38;;;391.77;;
57231;SDS011;43488;46.934;8.276;2023-07-08T11:43:40;658.35;;;350.67;;
57231;SDS011;43488;46.934;8.276;2023-07-08T11:46:20;630.53;;;374.48;;
57231;SDS011;43488;46.934;8.276;2023-07-08T11:48:53;654.65;;;358.48;;
57231;SDS011;43488;46.934;8.276;2023-07-08T11:51:28;650.80;;;324.88;;
57231;SDS011;43488;46.934;8.276;2023-07-08T11:57:05;648.40;;;392.58;;
57231;SDS011;43488;46.934;8.276;2023-07-08T11:59:42;638.67;;;384.95;;
57231;SDS011;43488;46.934;8.276;2023-07-08T12:02:16;640.78;;;411.23;;
57231;SDS011;43488;46.934;8.276;2023-07-08T12:04:56;633.65;;;393.65;;
57231;SDS011;43488;46.934;8.276;2023-07-08T12:07:44;639.63;;;400.20;;
57231;SDS011;43488;46.934;8.276;2023-07-08T12:10:20;637.67;;;319.00;;
57231;SDS011;43488;46.934;8.276;2023-07-08T12:13:01;648.10;;;337.13;;
57231;SDS011;43488;46.934;8.276;2023-07-08T12:15:31;652.30;;;366.30;;
57231;SDS011;43488;46.934;8.276;2023-07-08T12:18:02;647.53;;;335.77;;
57231;SDS011;43488;46.934;8.276;2023-07-08T12:20:44;629.47;;;381.25;;
57231;SDS011;43488;46.934;8.276;2023-07-08T12:23:22;637.95;;;399.95;;
57231;SDS011;43488;46.934;8.276;2023-07-08T12:25:52;643.40;;;395.63;;
57231;SDS011;43488;46.934;8.276;2023-07-08T12:28:22;648.45;;;344.67;;
57231;SDS011;43488;46.934;8.276;2023-07-08T12:30:50;659.50;;;362.42;;
57231;SDS011;43488;46.934;8.276;2023-07-08T12:33:30;660.55;;;380.05;;
57231;SDS011;43488;46.934;8.276;2023-07-08T12:36:01;658.67;;;345.88;;
57231;SDS011;43488;46.934;8.276;2023-07-08T12:38:30;648.28;;;340.55;;
57231;SDS011;43488;46.934;8.276;2023-07-08T12:43:47;659.42;;;358.30;;
57231;SDS011;43488;46.934;8.276;2023-07-08T12:46:18;653.22;;;339.00;;
57231;SDS011;43488;46.934;8.276;2023-07-08T12:48:47;649.38;;;415.63;;
57231;SDS011;43488;46.934;8.276;2023-07-08T12:51:19;660.13;;;372.80;;
57231;SDS011;43488;46.934;8.276;2023-07-08T12:53:52;633.15;;;309.73;;
57231;SDS011;43488;46.934;8.276;2023-07-08T12:56:21;649.33;;;414.67;;
57231;SDS011;43488;46.934;8.276;2023-07-08T12:58:52;654.58;;;420.10;;
57231;SDS011;43488;46.934;8.276;2023-07-08T13:01:24;654.83;;;429.73;;
57231;SDS011;43488;46.934;8.276;2023-07-08T13:03:56;657.80;;;386.48;;
57231;SDS011;43488;46.934;8.276;2023-07-08T13:06:29;646.97;;;421.48;;
57231;SDS011;43488;46.934;8.276;2023-07-08T13:09:01;658.77;;;358.57;;
57231;SDS011;43488;46.934;8.276;2023-07-08T13:12:13;653.95;;;364.80;;
57231;SDS011;43488;46.934;8.276;2023-07-08T13:14:49;662.00;;;381.33;;
57231;SDS011;43488;46.934;8.276;2023-07-08T13:17:17;662.70;;;381.10;;
57231;SDS011;43488;46.934;8.276;2023-07-08T13:19:45;655.03;;;387.77;;
57231;SDS011;43488;46.934;8.276;2023-07-08T13:22:15;669.65;;;409.77;;
57231;SDS011;43488;46.934;8.276;2023-07-08T13:24:45;655.67;;;456.75;;
57231;SDS011;43488;46.934;8.276;2023-07-08T13:27:20;650.97;;;463.73;;
57231;SDS011;43488;46.934;8.276;2023-07-08T13:29:51;668.08;;;467.38;;
57231;SDS011;43488;46.934;8.276;2023-07-08T13:32:20;644.22;;;473.17;;
57231;SDS011;43488;46.934;8.276;2023-07-08T13:34:55;642.80;;;483.23;;
57231;SDS011;43488;46.934;8.276;2023-07-08T13:37:23;660.03;;;445.38;;
57231;SDS011;43488;46.934;8.276;2023-07-08T13:39:52;644.10;;;467.27;;
57231;SDS011;43488;46.934;8.276;2023-07-08T13:42:28;661.90;;;448.75;;
57231;SDS011;43488;46.934;8.276;2023-07-08T13:44:55;642.75;;;465.17;;
57231;SDS011;43488;46.934;8.276;2023-07-08T13:47:25;645.22;;;467.42;;
57231;SDS011;43488;46.934;8.276;2023-07-08T13:50:00;643.15;;;483.60;;
57231;SDS011;43488;46.934;8.276;2023-07-08T13:52:45;656.67;;;444.85;;
57231;SDS011;43488;46.934;8.276;2023-07-08T13:55:16;646.38;;;480.65;;
57231;SDS011;43488;46.934;8.276;2023-07-08T13:57:45;656.53;;;453.77;;
57231;SDS011;43488;46.934;8.276;2023-07-08T14:00:12;655.03;;;456.40;;
57231;SDS011;43488;46.934;8.276;2023-07-08T14:02:42;640.85;;;483.40;;
57231;SDS011;43488;46.934;8.276;2023-07-08T14:05:12;641.92;;;488.95;;
57231;SDS011;43488;46.934;8.276;2023-07-08T14:07:41;639.35;;;475.70;;
57231;SDS011;43488;46.934;8.276;2023-07-08T14:10:12;639.10;;;486.85;;
57231;SDS011;43488;46.934;8.276;2023-07-08T14:12:40;644.40;;;495.52;;
57231;SDS011;43488;46.934;8.276;2023-07-08T14:15:07;660.45;;;483.58;;
57231;SDS011;43488;46.934;8.276;2023-07-08T14:17:38;636.42;;;483.63;;
57231;SDS011;43488;46.934;8.276;2023-07-08T14:20:11;635.70;;;488.08;;
57231;SDS011;43488;46.934;8.276;2023-07-08T14:22:42;663.45;;;469.08;;
57231;SDS011;43488;46.934;8.276;2023-07-08T14:25:10;661.47;;;429.05;;
57231;SDS011;43488;46.934;8.276;2023-07-08T14:27:40;658.00;;;430.67;;
57231;SDS011;43488;46.934;8.276;2023-07-08T14:30:09;645.47;;;464.42;;
57231;SDS011;43488;46.934;8.276;2023-07-08T14:32:42;657.85;;;441.73;;
57231;SDS011;43488;46.934;8.276;2023-07-08T14:35:21;647.13;;;482.23;;
57231;SDS011;43488;46.934;8.276;2023-07-08T14:37:51;650.95;;;480.48;;
57231;SDS011;43488;46.934;8.276;2023-07-08T14:43:02;648.95;;;486.70;;
57231;SDS011;43488;46.934;8.276;2023-07-08T14:45:54;667.05;;;469.02;;
57231;SDS011;43488;46.934;8.276;2023-07-08T14:48:24;646.63;;;476.35;;
57231;SDS011;43488;46.934;8.276;2023-07-08T14:50:55;666.22;;;468.90;;
57231;SDS011;43488;46.934;8.276;2023-07-08T14:53:23;655.35;;;451.92;;
57231;SDS011;43488;46.934;8.276;2023-07-08T14:55:51;646.45;;;490.92;;
57231;SDS011;43488;46.934;8.276;2023-07-08T15:00:51;650.97;;;485.45;;
57231;SDS011;43488;46.934;8.276;2023-07-08T15:03:22;659.92;;;458.35;;
57231;SDS011;43488;46.934;8.276;2023-07-08T15:05:53;663.00;;;465.92;;
57231;SDS011;43488;46.934;8.276;2023-07-08T15:08:21;653.85;;;444.90;;
57231;SDS011;43488;46.934;8.276;2023-07-08T15:10:50;648.92;;;494.05;;
57231;SDS011;43488;46.934;8.276;2023-07-08T15:13:20;646.63;;;490.23;;
57231;SDS011;43488;46.934;8.276;2023-07-08T15:15:57;659.08;;;467.80;;
57231;SDS011;43488;46.934;8.276;2023-07-08T15:18:24;642.45;;;475.15;;
57231;SDS011;43488;46.934;8.276;2023-07-08T15:20:52;639.63;;;480.77;;
57231;SDS011;43488;46.934;8.276;2023-07-08T15:23:20;637.00;;;477.50;;
57231;SDS011;43488;46.934;8.276;2023-07-08T15:25:47;643.85;;;488.90;;